Terminal Aerodrome Forecast
Issued by NWS

Home | Current Version | Previous Version | Text Only | Print | Product List | Glossary On
Versions: 1 2 3 4 5 6 7 8 9 10 11 12 13
000
FTUS45 KFGZ 190520
TAFPRC
TAF
KPRC 190520Z 1906/2006 21006KT P6SM SKC
     FM192000 26008G17KT P6SM FEW110
     FM200300 21006KT P6SM SKC=

USA.gov is the U.S. government's official web portal to all federal, state and local government web resources and services.